Ercolano, Italy

4:14 PM CEST on August 26, 2016 (GMT +0200)
| | Change Station

Elev -9999 ft 0.00 °N, 0.00 °E | Updated

Clear
Clear
86 °F
Feels Like 86 °F
N
5
Wind Variable Wind from NW
Gusts mph

Today
High -- | Low -- °F
--% Chance of Precip.
Yesterday
High -- | Low -- °F
Precip. -- in
Pressure 29.98 in
Visibility 6.2 miles
Clouds Few 3000 ft
Heat Index 86 °F
Dew Point 61 °F
Humidity 43%
Rainfall --
Snow Depth Not available.
6:23 AM 7:44 PM
Waning Crescent, 34% visible
METAR LIRM 261355Z 26011KT 9999 FEW030 32/20 Q1015 RMK FEW VIS MIN 9999 WIND THR06 23011KT BLU
Pressure 29.98 in
Visibility 6.2 miles
Clouds Few 3000 ft
Heat Index 86 °F
Dew Point 61 °F
Humidity 43%
Rainfall --
Snow Depth Not available.
6:23 AM 7:44 PM
Waning Crescent, 34% visible
METAR LIRM 261355Z 26011KT 9999 FEW030 32/20 Q1015 RMK FEW VIS MIN 9999 WIND THR06 23011KT BLU

10-Day Weather Forecast

×

Almanac

Astronomy

Aug. 26, 2016 Rise Set
Actual Time
Civil Twilight
Nautical Twilight
Astronomical Twilight
Moon
Length of Visible Light
Length of Day
Tomorrow will be .
, % of the Moon is Illuminated

Today's Extremes

Country Highs Country Lows

Community

WunderPhotos

Upload Photos

1,935,084 photos uploaded!

WunderBlog® & News

Nearby

Air Quality

  Air Quality AQ Index Pollutant
Not available.

Snow Depth

Station Depth Elevation

Earthquake Activity

City Distance Mag. Time & Date
Minimum magnitude displayed is 2.5.

Coastal Water Temperatures

Place Temperature

Stations

Nearby Weather Stations

Station Location Temp. Windchill Dew Point Humidity Wind Precip. Elev Updated Type